sensor_id;sensor_type;location;lat;lon;timestamp;P1;durP1;ratioP1;P2;durP2;ratioP2
36593;SDS011;22603;47.900;8.146;2023-04-03T00:02:02;5.00;;;2.10;;
36593;SDS011;22603;47.900;8.146;2023-04-03T00:04:49;4.70;;;1.90;;
36593;SDS011;22603;47.900;8.146;2023-04-03T00:07:36;3.77;;;1.80;;
36593;SDS011;22603;47.900;8.146;2023-04-03T00:10:23;5.50;;;2.03;;
36593;SDS011;22603;47.900;8.146;2023-04-03T00:13:10;5.07;;;2.17;;
36593;SDS011;22603;47.900;8.146;2023-04-03T00:15:57;7.07;;;2.40;;
36593;SDS011;22603;47.900;8.146;2023-04-03T00:18:45;6.23;;;2.33;;
36593;SDS011;22603;47.900;8.146;2023-04-03T00:21:32;4.33;;;1.80;;
36593;SDS011;22603;47.900;8.146;2023-04-03T00:24:20;4.33;;;2.13;;
36593;SDS011;22603;47.900;8.146;2023-04-03T00:27:07;5.97;;;2.20;;
36593;SDS011;22603;47.900;8.146;2023-04-03T00:29:54;2.87;;;1.40;;
36593;SDS011;22603;47.900;8.146;2023-04-03T00:32:41;4.93;;;1.87;;
36593;SDS011;22603;47.900;8.146;2023-04-03T00:35:29;4.17;;;1.70;;
36593;SDS011;22603;47.900;8.146;2023-04-03T00:38:17;7.60;;;2.17;;
36593;SDS011;22603;47.900;8.146;2023-04-03T00:41:04;6.03;;;2.17;;
36593;SDS011;22603;47.900;8.146;2023-04-03T00:43:51;4.60;;;1.90;;
36593;SDS011;22603;47.900;8.146;2023-04-03T00:46:37;4.47;;;1.80;;
36593;SDS011;22603;47.900;8.146;2023-04-03T00:49:25;5.27;;;1.80;;
36593;SDS011;22603;47.900;8.146;2023-04-03T00:52:15;4.63;;;1.97;;
36593;SDS011;22603;47.900;8.146;2023-04-03T00:55:05;4.17;;;1.73;;
36593;SDS011;22603;47.900;8.146;2023-04-03T00:57:55;5.73;;;2.10;;
36593;SDS011;22603;47.900;8.146;2023-04-03T01:00:43;5.17;;;1.57;;
36593;SDS011;22603;47.900;8.146;2023-04-03T01:03:41;4.33;;;1.80;;
36593;SDS011;22603;47.900;8.146;2023-04-03T01:06:28;5.17;;;1.90;;
36593;SDS011;22603;47.900;8.146;2023-04-03T01:09:19;4.00;;;1.60;;
36593;SDS011;22603;47.900;8.146;2023-04-03T01:12:12;5.47;;;1.90;;
36593;SDS011;22603;47.900;8.146;2023-04-03T01:15:02;3.10;;;1.40;;
36593;SDS011;22603;47.900;8.146;2023-04-03T01:17:51;4.63;;;1.57;;
36593;SDS011;22603;47.900;8.146;2023-04-03T01:24:19;2.90;;;1.27;;
36593;SDS011;22603;47.900;8.146;2023-04-03T01:27:13;1.93;;;1.10;;
36593;SDS011;22603;47.900;8.146;2023-04-03T01:30:03;1.43;;;1.00;;
36593;SDS011;22603;47.900;8.146;2023-04-03T01:32:53;3.20;;;1.20;;
36593;SDS011;22603;47.900;8.146;2023-04-03T01:35:41;2.03;;;1.00;;
36593;SDS011;22603;47.900;8.146;2023-04-03T01:38:28;2.27;;;1.10;;
36593;SDS011;22603;47.900;8.146;2023-04-03T01:41:16;1.43;;;0.90;;
36593;SDS011;22603;47.900;8.146;2023-04-03T01:44:04;2.80;;;1.20;;
36593;SDS011;22603;47.900;8.146;2023-04-03T01:46:58;3.70;;;1.30;;
36593;SDS011;22603;47.900;8.146;2023-04-03T01:49:52;2.30;;;1.17;;
36593;SDS011;22603;47.900;8.146;2023-04-03T01:52:47;2.63;;;1.20;;
36593;SDS011;22603;47.900;8.146;2023-04-03T01:55:37;3.83;;;1.40;;
36593;SDS011;22603;47.900;8.146;2023-04-03T01:58:32;3.90;;;1.53;;
36593;SDS011;22603;47.900;8.146;2023-04-03T02:01:26;3.00;;;1.53;;
36593;SDS011;22603;47.900;8.146;2023-04-03T02:04:14;5.20;;;1.50;;
36593;SDS011;22603;47.900;8.146;2023-04-03T02:07:11;3.83;;;1.67;;
36593;SDS011;22603;47.900;8.146;2023-04-03T02:10:02;4.77;;;1.37;;
36593;SDS011;22603;47.900;8.146;2023-04-03T02:12:56;2.37;;;1.00;;
36593;SDS011;22603;47.900;8.146;2023-04-03T02:15:49;3.60;;;1.50;;
36593;SDS011;22603;47.900;8.146;2023-04-03T02:18:36;4.00;;;1.60;;
36593;SDS011;22603;47.900;8.146;2023-04-03T02:21:23;4.33;;;1.90;;
36593;SDS011;22603;47.900;8.146;2023-04-03T02:24:12;1.97;;;1.30;;
36593;SDS011;22603;47.900;8.146;2023-04-03T02:26:59;3.67;;;1.63;;
36593;SDS011;22603;47.900;8.146;2023-04-03T02:29:47;5.13;;;1.97;;
36593;SDS011;22603;47.900;8.146;2023-04-03T02:32:44;3.80;;;1.97;;
36593;SDS011;22603;47.900;8.146;2023-04-03T02:35:38;6.33;;;2.37;;
36593;SDS011;22603;47.900;8.146;2023-04-03T02:38:30;5.80;;;2.03;;
36593;SDS011;22603;47.900;8.146;2023-04-03T02:41:28;4.67;;;2.20;;
36593;SDS011;22603;47.900;8.146;2023-04-03T02:44:21;4.47;;;1.80;;
36593;SDS011;22603;47.900;8.146;2023-04-03T02:47:06;6.57;;;2.37;;
36593;SDS011;22603;47.900;8.146;2023-04-03T02:49:54;5.20;;;2.37;;
36593;SDS011;22603;47.900;8.146;2023-04-03T02:52:41;5.47;;;1.93;;
36593;SDS011;22603;47.900;8.146;2023-04-03T02:55:27;4.93;;;1.83;;
36593;SDS011;22603;47.900;8.146;2023-04-03T02:58:16;5.33;;;2.17;;
36593;SDS011;22603;47.900;8.146;2023-04-03T03:01:04;5.13;;;2.03;;
36593;SDS011;22603;47.900;8.146;2023-04-03T03:03:51;5.20;;;1.90;;
36593;SDS011;22603;47.900;8.146;2023-04-03T03:06:38;5.30;;;1.97;;
36593;SDS011;22603;47.900;8.146;2023-04-03T03:09:27;5.77;;;2.27;;
36593;SDS011;22603;47.900;8.146;2023-04-03T03:12:14;5.73;;;2.53;;
36593;SDS011;22603;47.900;8.146;2023-04-03T03:15:02;5.43;;;2.27;;
36593;SDS011;22603;47.900;8.146;2023-04-03T03:17:49;7.03;;;2.43;;
36593;SDS011;22603;47.900;8.146;2023-04-03T03:20:36;7.47;;;2.77;;
36593;SDS011;22603;47.900;8.146;2023-04-03T03:23:24;9.43;;;2.67;;
36593;SDS011;22603;47.900;8.146;2023-04-03T03:26:12;5.57;;;2.20;;
36593;SDS011;22603;47.900;8.146;2023-04-03T03:28:59;6.50;;;3.00;;
36593;SDS011;22603;47.900;8.146;2023-04-03T03:31:47;7.00;;;2.90;;
36593;SDS011;22603;47.900;8.146;2023-04-03T03:34:34;6.67;;;2.73;;
36593;SDS011;22603;47.900;8.146;2023-04-03T03:37:21;7.07;;;2.97;;
36593;SDS011;22603;47.900;8.146;2023-04-03T03:40:08;7.33;;;2.80;;
36593;SDS011;22603;47.900;8.146;2023-04-03T03:42:57;9.80;;;3.43;;
36593;SDS011;22603;47.900;8.146;2023-04-03T03:45:44;8.50;;;3.33;;
36593;SDS011;22603;47.900;8.146;2023-04-03T03:48:37;6.87;;;2.60;;
36593;SDS011;22603;47.900;8.146;2023-04-03T03:51:23;8.53;;;3.13;;
36593;SDS011;22603;47.900;8.146;2023-04-03T03:54:10;6.97;;;3.00;;
36593;SDS011;22603;47.900;8.146;2023-04-03T03:56:57;8.23;;;3.00;;
36593;SDS011;22603;47.900;8.146;2023-04-03T03:59:44;7.57;;;3.13;;
36593;SDS011;22603;47.900;8.146;2023-04-03T04:02:32;6.50;;;2.77;;
36593;SDS011;22603;47.900;8.146;2023-04-03T04:05:21;6.67;;;2.63;;
36593;SDS011;22603;47.900;8.146;2023-04-03T04:08:08;7.57;;;3.00;;
36593;SDS011;22603;47.900;8.146;2023-04-03T04:10:55;6.53;;;3.00;;
36593;SDS011;22603;47.900;8.146;2023-04-03T04:13:41;7.53;;;3.17;;
36593;SDS011;22603;47.900;8.146;2023-04-03T04:16:28;8.63;;;3.00;;
36593;SDS011;22603;47.900;8.146;2023-04-03T04:19:15;8.60;;;3.63;;
36593;SDS011;22603;47.900;8.146;2023-04-03T04:22:03;10.13;;;3.33;;
36593;SDS011;22603;47.900;8.146;2023-04-03T04:24:50;7.27;;;3.30;;
36593;SDS011;22603;47.900;8.146;2023-04-03T04:27:37;7.30;;;2.77;;
36593;SDS011;22603;47.900;8.146;2023-04-03T04:30:24;7.27;;;2.93;;
36593;SDS011;22603;47.900;8.146;2023-04-03T04:33:12;9.33;;;3.27;;
36593;SDS011;22603;47.900;8.146;2023-04-03T04:35:59;7.93;;;3.07;;
36593;SDS011;22603;47.900;8.146;2023-04-03T04:38:48;9.40;;;3.00;;
36593;SDS011;22603;47.900;8.146;2023-04-03T04:41:37;8.37;;;3.03;;
36593;SDS011;22603;47.900;8.146;2023-04-03T04:44:24;9.00;;;3.37;;
36593;SDS011;22603;47.900;8.146;2023-04-03T04:47:11;7.93;;;3.23;;
36593;SDS011;22603;47.900;8.146;2023-04-03T04:49:59;8.90;;;3.50;;
36593;SDS011;22603;47.900;8.146;2023-04-03T04:52:46;9.03;;;3.40;;
36593;SDS011;22603;47.900;8.146;2023-04-03T04:55:34;9.13;;;3.10;;
36593;SDS011;22603;47.900;8.146;2023-04-03T04:58:21;7.00;;;3.17;;
36593;SDS011;22603;47.900;8.146;2023-04-03T05:01:09;8.17;;;3.20;;
36593;SDS011;22603;47.900;8.146;2023-04-03T05:03:57;9.63;;;3.47;;
36593;SDS011;22603;47.900;8.146;2023-04-03T05:06:43;8.30;;;2.90;;
36593;SDS011;22603;47.900;8.146;2023-04-03T05:09:30;8.67;;;2.90;;
36593;SDS011;22603;47.900;8.146;2023-04-03T05:12:19;7.70;;;2.83;;
36593;SDS011;22603;47.900;8.146;2023-04-03T05:15:06;8.33;;;2.97;;
36593;SDS011;22603;47.900;8.146;2023-04-03T05:17:54;7.13;;;2.83;;
36593;SDS011;22603;47.900;8.146;2023-04-03T05:20:41;8.97;;;3.47;;
36593;SDS011;22603;47.900;8.146;2023-04-03T05:23:28;9.27;;;3.30;;
36593;SDS011;22603;47.900;8.146;2023-04-03T05:26:15;8.97;;;3.33;;
36593;SDS011;22603;47.900;8.146;2023-04-03T05:29:03;9.50;;;4.17;;
36593;SDS011;22603;47.900;8.146;2023-04-03T05:31:50;8.13;;;3.50;;
36593;SDS011;22603;47.900;8.146;2023-04-03T05:34:37;9.87;;;3.53;;
36593;SDS011;22603;47.900;8.146;2023-04-03T05:37:24;8.23;;;3.50;;
36593;SDS011;22603;47.900;8.146;2023-04-03T05:40:11;8.60;;;3.00;;
36593;SDS011;22603;47.900;8.146;2023-04-03T05:42:58;10.23;;;4.17;;
36593;SDS011;22603;47.900;8.146;2023-04-03T05:45:46;8.77;;;3.60;;
36593;SDS011;22603;47.900;8.146;2023-04-03T05:48:34;7.83;;;3.07;;
36593;SDS011;22603;47.900;8.146;2023-04-03T05:51:24;7.40;;;3.20;;
36593;SDS011;22603;47.900;8.146;2023-04-03T05:54:17;7.43;;;2.83;;
36593;SDS011;22603;47.900;8.146;2023-04-03T05:57:06;6.40;;;2.43;;
36593;SDS011;22603;47.900;8.146;2023-04-03T05:59:53;6.90;;;2.77;;
36593;SDS011;22603;47.900;8.146;2023-04-03T06:02:42;9.37;;;2.80;;
36593;SDS011;22603;47.900;8.146;2023-04-03T06:05:29;4.70;;;2.10;;
36593;SDS011;22603;47.900;8.146;2023-04-03T06:08:16;5.80;;;2.30;;
36593;SDS011;22603;47.900;8.146;2023-04-03T06:11:03;4.90;;;2.40;;
36593;SDS011;22603;47.900;8.146;2023-04-03T06:13:50;5.93;;;2.20;;
36593;SDS011;22603;47.900;8.146;2023-04-03T06:16:37;5.93;;;2.20;;
36593;SDS011;22603;47.900;8.146;2023-04-03T06:19:26;7.70;;;2.67;;
36593;SDS011;22603;47.900;8.146;2023-04-03T06:22:14;5.37;;;1.80;;
36593;SDS011;22603;47.900;8.146;2023-04-03T06:25:01;5.37;;;2.30;;
36593;SDS011;22603;47.900;8.146;2023-04-03T06:27:48;4.07;;;2.00;;
36593;SDS011;22603;47.900;8.146;2023-04-03T06:30:35;7.40;;;2.60;;
36593;SDS011;22603;47.900;8.146;2023-04-03T06:33:24;6.07;;;2.30;;
36593;SDS011;22603;47.900;8.146;2023-04-03T06:36:12;6.53;;;2.33;;
36593;SDS011;22603;47.900;8.146;2023-04-03T06:38:59;6.10;;;2.80;;
36593;SDS011;22603;47.900;8.146;2023-04-03T06:41:46;6.47;;;2.90;;
36593;SDS011;22603;47.900;8.146;2023-04-03T06:44:34;8.53;;;3.07;;
36593;SDS011;22603;47.900;8.146;2023-04-03T06:47:21;7.83;;;2.83;;
36593;SDS011;22603;47.900;8.146;2023-04-03T06:50:09;9.30;;;2.87;;
36593;SDS011;22603;47.900;8.146;2023-04-03T06:53:00;8.17;;;2.90;;
36593;SDS011;22603;47.900;8.146;2023-04-03T06:55:48;7.07;;;2.90;;
36593;SDS011;22603;47.900;8.146;2023-04-03T06:58:35;7.07;;;3.13;;
36593;SDS011;22603;47.900;8.146;2023-04-03T07:01:22;7.57;;;3.00;;
36593;SDS011;22603;47.900;8.146;2023-04-03T07:04:10;6.37;;;2.53;;
36593;SDS011;22603;47.900;8.146;2023-04-03T07:06:57;6.03;;;2.03;;
36593;SDS011;22603;47.900;8.146;2023-04-03T07:09:45;7.23;;;2.73;;
36593;SDS011;22603;47.900;8.146;2023-04-03T07:12:32;10.83;;;3.50;;
36593;SDS011;22603;47.900;8.146;2023-04-03T07:15:19;7.87;;;3.47;;
36593;SDS011;22603;47.900;8.146;2023-04-03T07:18:07;11.97;;;3.83;;
36593;SDS011;22603;47.900;8.146;2023-04-03T07:20:54;8.70;;;3.30;;
36593;SDS011;22603;47.900;8.146;2023-04-03T07:23:41;8.37;;;3.20;;
36593;SDS011;22603;47.900;8.146;2023-04-03T07:26:29;10.00;;;3.63;;
36593;SDS011;22603;47.900;8.146;2023-04-03T07:29:16;8.97;;;3.20;;
36593;SDS011;22603;47.900;8.146;2023-04-03T07:32:03;10.70;;;3.73;;
36593;SDS011;22603;47.900;8.146;2023-04-03T07:34:52;9.43;;;3.10;;
36593;SDS011;22603;47.900;8.146;2023-04-03T07:37:39;9.33;;;3.33;;
36593;SDS011;22603;47.900;8.146;2023-04-03T07:40:26;7.07;;;3.07;;
36593;SDS011;22603;47.900;8.146;2023-04-03T07:43:16;11.00;;;3.63;;
36593;SDS011;22603;47.900;8.146;2023-04-03T07:46:04;6.83;;;3.07;;
36593;SDS011;22603;47.900;8.146;2023-04-03T07:48:52;7.10;;;3.37;;
36593;SDS011;22603;47.900;8.146;2023-04-03T07:51:41;9.23;;;3.57;;
36593;SDS011;22603;47.900;8.146;2023-04-03T07:54:28;6.77;;;2.70;;
36593;SDS011;22603;47.900;8.146;2023-04-03T07:57:15;8.10;;;3.27;;
36593;SDS011;22603;47.900;8.146;2023-04-03T08:00:04;8.23;;;3.23;;
36593;SDS011;22603;47.900;8.146;2023-04-03T08:02:52;8.93;;;3.63;;
36593;SDS011;22603;47.900;8.146;2023-04-03T08:05:39;8.40;;;2.90;;
36593;SDS011;22603;47.900;8.146;2023-04-03T08:08:28;7.17;;;2.97;;
36593;SDS011;22603;47.900;8.146;2023-04-03T08:11:15;7.03;;;3.07;;
36593;SDS011;22603;47.900;8.146;2023-04-03T08:14:03;8.57;;;3.63;;
36593;SDS011;22603;47.900;8.146;2023-04-03T08:16:51;7.80;;;3.27;;
36593;SDS011;22603;47.900;8.146;2023-04-03T08:19:39;9.20;;;3.33;;
36593;SDS011;22603;47.900;8.146;2023-04-03T08:22:26;7.10;;;2.70;;
36593;SDS011;22603;47.900;8.146;2023-04-03T08:25:13;6.47;;;2.27;;
36593;SDS011;22603;47.900;8.146;2023-04-03T08:28:02;7.63;;;2.83;;
36593;SDS011;22603;47.900;8.146;2023-04-03T08:30:49;8.20;;;3.00;;
36593;SDS011;22603;47.900;8.146;2023-04-03T08:33:38;9.70;;;3.70;;
36593;SDS011;22603;47.900;8.146;2023-04-03T08:36:26;6.67;;;2.77;;
36593;SDS011;22603;47.900;8.146;2023-04-03T08:39:14;8.00;;;3.67;;
36593;SDS011;22603;47.900;8.146;2023-04-03T08:42:02;8.73;;;3.47;;
36593;SDS011;22603;47.900;8.146;2023-04-03T08:44:53;7.13;;;2.80;;
36593;SDS011;22603;47.900;8.146;2023-04-03T08:47:47;6.73;;;2.73;;
36593;SDS011;22603;47.900;8.146;2023-04-03T08:50:43;6.80;;;2.10;;
36593;SDS011;22603;47.900;8.146;2023-04-03T08:53:34;5.03;;;2.43;;
36593;SDS011;22603;47.900;8.146;2023-04-03T08:56:25;4.57;;;2.20;;
36593;SDS011;22603;47.900;8.146;2023-04-03T08:59:17;5.67;;;2.20;;
36593;SDS011;22603;47.900;8.146;2023-04-03T09:02:21;5.47;;;2.33;;
36593;SDS011;22603;47.900;8.146;2023-04-03T09:05:13;5.07;;;2.00;;
36593;SDS011;22603;47.900;8.146;2023-04-03T09:08:04;4.73;;;2.00;;
36593;SDS011;22603;47.900;8.146;2023-04-03T09:11:06;4.57;;;1.97;;
36593;SDS011;22603;47.900;8.146;2023-04-03T09:14:04;5.60;;;2.20;;
36593;SDS011;22603;47.900;8.146;2023-04-03T09:17:00;5.93;;;2.10;;
36593;SDS011;22603;47.900;8.146;2023-04-03T09:19:51;6.10;;;2.30;;
36593;SDS011;22603;47.900;8.146;2023-04-03T09:22:44;7.77;;;2.50;;
36593;SDS011;22603;47.900;8.146;2023-04-03T09:25:38;5.43;;;2.10;;
36593;SDS011;22603;47.900;8.146;2023-04-03T09:28:25;5.23;;;2.33;;
36593;SDS011;22603;47.900;8.146;2023-04-03T09:31:20;4.93;;;1.93;;
36593;SDS011;22603;47.900;8.146;2023-04-03T09:34:11;5.27;;;2.23;;
36593;SDS011;22603;47.900;8.146;2023-04-03T09:37:11;4.80;;;2.00;;
36593;SDS011;22603;47.900;8.146;2023-04-03T09:40:32;6.03;;;2.33;;
36593;SDS011;22603;47.900;8.146;2023-04-03T09:43:25;6.03;;;2.30;;
36593;SDS011;22603;47.900;8.146;2023-04-03T09:49:20;6.77;;;2.40;;
36593;SDS011;22603;47.900;8.146;2023-04-03T09:52:17;5.67;;;2.30;;
36593;SDS011;22603;47.900;8.146;2023-04-03T09:55:07;5.40;;;2.00;;
36593;SDS011;22603;47.900;8.146;2023-04-03T09:58:00;5.57;;;2.13;;
36593;SDS011;22603;47.900;8.146;2023-04-03T10:00:53;4.77;;;2.07;;
36593;SDS011;22603;47.900;8.146;2023-04-03T10:03:40;6.70;;;2.17;;
36593;SDS011;22603;47.900;8.146;2023-04-03T10:06:32;6.03;;;2.23;;
36593;SDS011;22603;47.900;8.146;2023-04-03T10:09:22;4.37;;;2.10;;
36593;SDS011;22603;47.900;8.146;2023-04-03T10:12:12;5.90;;;2.23;;
36593;SDS011;22603;47.900;8.146;2023-04-03T10:15:11;5.27;;;2.13;;
36593;SDS011;22603;47.900;8.146;2023-04-03T10:18:00;6.00;;;2.07;;
36593;SDS011;22603;47.900;8.146;2023-04-03T10:21:09;5.57;;;1.97;;
36593;SDS011;22603;47.900;8.146;2023-04-03T10:24:12;5.70;;;2.40;;
36593;SDS011;22603;47.900;8.146;2023-04-03T10:27:05;4.63;;;1.57;;
36593;SDS011;22603;47.900;8.146;2023-04-03T10:29:59;5.47;;;2.00;;
36593;SDS011;22603;47.900;8.146;2023-04-03T10:32:58;5.23;;;2.10;;
36593;SDS011;22603;47.900;8.146;2023-04-03T10:36:02;3.60;;;1.77;;
36593;SDS011;22603;47.900;8.146;2023-04-03T10:38:58;4.80;;;1.90;;
36593;SDS011;22603;47.900;8.146;2023-04-03T10:41:56;3.57;;;1.63;;
36593;SDS011;22603;47.900;8.146;2023-04-03T10:45:06;5.20;;;2.10;;
36593;SDS011;22603;47.900;8.146;2023-04-03T10:48:06;5.83;;;2.40;;
36593;SDS011;22603;47.900;8.146;2023-04-03T10:50:58;5.00;;;2.00;;
36593;SDS011;22603;47.900;8.146;2023-04-03T10:53:55;4.90;;;2.17;;
36593;SDS011;22603;47.900;8.146;2023-04-03T10:56:46;5.43;;;2.33;;
36593;SDS011;22603;47.900;8.146;2023-04-03T10:59:45;6.70;;;2.70;;
36593;SDS011;22603;47.900;8.146;2023-04-03T11:02:37;6.47;;;2.17;;
36593;SDS011;22603;47.900;8.146;2023-04-03T11:05:34;4.83;;;2.20;;
36593;SDS011;22603;47.900;8.146;2023-04-03T11:08:26;5.20;;;2.33;;
36593;SDS011;22603;47.900;8.146;2023-04-03T11:11:19;6.63;;;2.60;;
36593;SDS011;22603;47.900;8.146;2023-04-03T11:14:13;6.23;;;1.87;;
36593;SDS011;22603;47.900;8.146;2023-04-03T11:17:11;5.77;;;2.40;;
36593;SDS011;22603;47.900;8.146;2023-04-03T11:20:08;5.00;;;2.20;;
36593;SDS011;22603;47.900;8.146;2023-04-03T11:23:02;4.03;;;2.00;;
36593;SDS011;22603;47.900;8.146;2023-04-03T11:25:53;9.00;;;2.60;;
36593;SDS011;22603;47.900;8.146;2023-04-03T11:28:53;5.93;;;2.40;;
36593;SDS011;22603;47.900;8.146;2023-04-03T11:31:47;6.67;;;2.10;;
36593;SDS011;22603;47.900;8.146;2023-04-03T11:34:50;5.97;;;2.23;;
36593;SDS011;22603;47.900;8.146;2023-04-03T11:37:45;4.37;;;2.00;;
36593;SDS011;22603;47.900;8.146;2023-04-03T11:40:36;6.40;;;2.53;;
36593;SDS011;22603;47.900;8.146;2023-04-03T11:43:27;5.93;;;2.67;;
36593;SDS011;22603;47.900;8.146;2023-04-03T11:46:16;8.27;;;2.70;;
36593;SDS011;22603;47.900;8.146;2023-04-03T11:49:04;4.90;;;2.03;;
36593;SDS011;22603;47.900;8.146;2023-04-03T11:52:12;4.97;;;2.03;;
36593;SDS011;22603;47.900;8.146;2023-04-03T11:55:44;6.03;;;2.10;;
36593;SDS011;22603;47.900;8.146;2023-04-03T11:58:42;6.93;;;2.90;;
36593;SDS011;22603;47.900;8.146;2023-04-03T12:02:22;7.00;;;2.80;;
36593;SDS011;22603;47.900;8.146;2023-04-03T12:05:37;6.73;;;2.37;;
36593;SDS011;22603;47.900;8.146;2023-04-03T12:08:25;7.57;;;2.57;;
36593;SDS011;22603;47.900;8.146;2023-04-03T12:11:15;5.20;;;2.00;;
36593;SDS011;22603;47.900;8.146;2023-04-03T12:14:13;6.60;;;2.70;;
36593;SDS011;22603;47.900;8.146;2023-04-03T12:17:02;6.13;;;2.63;;
36593;SDS011;22603;47.900;8.146;2023-04-03T12:23:31;7.07;;;2.37;;
36593;SDS011;22603;47.900;8.146;2023-04-03T12:26:21;5.90;;;2.40;;
36593;SDS011;22603;47.900;8.146;2023-04-03T12:29:19;5.90;;;2.60;;
36593;SDS011;22603;47.900;8.146;2023-04-03T12:32:11;5.60;;;2.17;;
36593;SDS011;22603;47.900;8.146;2023-04-03T12:35:10;5.80;;;2.40;;
36593;SDS011;22603;47.900;8.146;2023-04-03T12:41:30;7.10;;;2.60;;
36593;SDS011;22603;47.900;8.146;2023-04-03T12:44:27;4.57;;;2.30;;
36593;SDS011;22603;47.900;8.146;2023-04-03T12:47:25;6.70;;;2.27;;
36593;SDS011;22603;47.900;8.146;2023-04-03T12:50:18;4.80;;;2.23;;
36593;SDS011;22603;47.900;8.146;2023-04-03T12:53:11;6.17;;;2.77;;
36593;SDS011;22603;47.900;8.146;2023-04-03T12:59:15;5.30;;;2.20;;
36593;SDS011;22603;47.900;8.146;2023-04-03T13:02:08;6.20;;;2.80;;
36593;SDS011;22603;47.900;8.146;2023-04-03T13:05:06;6.07;;;2.37;;
36593;SDS011;22603;47.900;8.146;2023-04-03T13:07:57;6.00;;;2.40;;
36593;SDS011;22603;47.900;8.146;2023-04-03T13:10:51;5.87;;;2.20;;
36593;SDS011;22603;47.900;8.146;2023-04-03T13:13:53;8.53;;;2.50;;
36593;SDS011;22603;47.900;8.146;2023-04-03T13:16:45;6.67;;;2.77;;
36593;SDS011;22603;47.900;8.146;2023-04-03T13:19:40;5.80;;;2.17;;
36593;SDS011;22603;47.900;8.146;2023-04-03T13:22:28;4.60;;;2.10;;
36593;SDS011;22603;47.900;8.146;2023-04-03T13:25:25;7.13;;;2.30;;
36593;SDS011;22603;47.900;8.146;2023-04-03T13:28:15;6.33;;;2.40;;
36593;SDS011;22603;47.900;8.146;2023-04-03T13:31:07;7.13;;;2.60;;
36593;SDS011;22603;47.900;8.146;2023-04-03T13:34:05;6.13;;;2.17;;
36593;SDS011;22603;47.900;8.146;2023-04-03T13:36:58;3.87;;;1.90;;
36593;SDS011;22603;47.900;8.146;2023-04-03T13:39:56;9.57;;;3.07;;
36593;SDS011;22603;47.900;8.146;2023-04-03T13:42:45;8.87;;;2.80;;
36593;SDS011;22603;47.900;8.146;2023-04-03T13:45:34;4.47;;;2.23;;
36593;SDS011;22603;47.900;8.146;2023-04-03T13:48:22;7.13;;;2.60;;
36593;SDS011;22603;47.900;8.146;2023-04-03T13:51:23;8.23;;;2.37;;
36593;SDS011;22603;47.900;8.146;2023-04-03T13:54:16;6.33;;;2.40;;
36593;SDS011;22603;47.900;8.146;2023-04-03T13:57:10;9.37;;;2.80;;
36593;SDS011;22603;47.900;8.146;2023-04-03T14:03:13;6.77;;;2.80;;
36593;SDS011;22603;47.900;8.146;2023-04-03T14:06:05;5.87;;;2.30;;
36593;SDS011;22603;47.900;8.146;2023-04-03T14:08:54;5.87;;;2.53;;
36593;SDS011;22603;47.900;8.146;2023-04-03T14:11:41;5.67;;;2.23;;
36593;SDS011;22603;47.900;8.146;2023-04-03T14:14:31;5.10;;;2.17;;
36593;SDS011;22603;47.900;8.146;2023-04-03T14:17:20;6.07;;;2.50;;
36593;SDS011;22603;47.900;8.146;2023-04-03T14:20:10;8.93;;;2.43;;
36593;SDS011;22603;47.900;8.146;2023-04-03T14:23:01;8.07;;;2.60;;
36593;SDS011;22603;47.900;8.146;2023-04-03T14:25:50;6.00;;;2.50;;
36593;SDS011;22603;47.900;8.146;2023-04-03T14:28:37;8.07;;;2.23;;
36593;SDS011;22603;47.900;8.146;2023-04-03T14:31:27;5.80;;;2.30;;
36593;SDS011;22603;47.900;8.146;2023-04-03T14:34:15;5.47;;;2.30;;
36593;SDS011;22603;47.900;8.146;2023-04-03T14:37:04;5.10;;;2.43;;
36593;SDS011;22603;47.900;8.146;2023-04-03T14:39:51;6.97;;;2.60;;
36593;SDS011;22603;47.900;8.146;2023-04-03T14:42:40;5.93;;;2.80;;
36593;SDS011;22603;47.900;8.146;2023-04-03T14:45:28;7.00;;;2.43;;
36593;SDS011;22603;47.900;8.146;2023-04-03T14:48:16;7.17;;;2.70;;
36593;SDS011;22603;47.900;8.146;2023-04-03T14:51:06;8.17;;;2.93;;
36593;SDS011;22603;47.900;8.146;2023-04-03T14:53:52;7.10;;;2.37;;
36593;SDS011;22603;47.900;8.146;2023-04-03T14:56:41;5.73;;;2.30;;
36593;SDS011;22603;47.900;8.146;2023-04-03T14:59:31;7.73;;;2.43;;
36593;SDS011;22603;47.900;8.146;2023-04-03T15:02:25;6.80;;;2.40;;
36593;SDS011;22603;47.900;8.146;2023-04-03T15:05:15;4.13;;;2.03;;
36593;SDS011;22603;47.900;8.146;2023-04-03T15:08:07;7.03;;;2.83;;
36593;SDS011;22603;47.900;8.146;2023-04-03T15:11:05;5.27;;;2.30;;
36593;SDS011;22603;47.900;8.146;2023-04-03T15:13:59;6.73;;;2.03;;
36593;SDS011;22603;47.900;8.146;2023-04-03T15:16:48;8.47;;;2.57;;
36593;SDS011;22603;47.900;8.146;2023-04-03T15:19:37;6.37;;;2.33;;
36593;SDS011;22603;47.900;8.146;2023-04-03T15:22:25;4.97;;;2.43;;
36593;SDS011;22603;47.900;8.146;2023-04-03T15:25:13;7.17;;;2.70;;
36593;SDS011;22603;47.900;8.146;2023-04-03T15:28:05;5.67;;;2.33;;
36593;SDS011;22603;47.900;8.146;2023-04-03T15:30:56;5.03;;;2.30;;
36593;SDS011;22603;47.900;8.146;2023-04-03T15:33:45;5.33;;;2.30;;
36593;SDS011;22603;47.900;8.146;2023-04-03T15:36:33;6.47;;;2.33;;
36593;SDS011;22603;47.900;8.146;2023-04-03T15:39:20;8.40;;;2.83;;
36593;SDS011;22603;47.900;8.146;2023-04-03T15:42:09;5.27;;;2.17;;
36593;SDS011;22603;47.900;8.146;2023-04-03T15:45:02;9.30;;;2.60;;
36593;SDS011;22603;47.900;8.146;2023-04-03T15:47:52;7.90;;;2.60;;
36593;SDS011;22603;47.900;8.146;2023-04-03T15:50:41;5.63;;;2.40;;
36593;SDS011;22603;47.900;8.146;2023-04-03T15:53:29;6.67;;;2.40;;
36593;SDS011;22603;47.900;8.146;2023-04-03T15:56:19;6.07;;;2.60;;
36593;SDS011;22603;47.900;8.146;2023-04-03T15:59:06;7.07;;;2.70;;
36593;SDS011;22603;47.900;8.146;2023-04-03T16:01:53;5.77;;;2.37;;
36593;SDS011;22603;47.900;8.146;2023-04-03T16:04:41;3.90;;;1.93;;
36593;SDS011;22603;47.900;8.146;2023-04-03T16:07:30;3.57;;;1.87;;
36593;SDS011;22603;47.900;8.146;2023-04-03T16:10:18;5.90;;;2.40;;
36593;SDS011;22603;47.900;8.146;2023-04-03T16:13:06;5.80;;;2.87;;
36593;SDS011;22603;47.900;8.146;2023-04-03T16:15:54;5.53;;;1.90;;
36593;SDS011;22603;47.900;8.146;2023-04-03T16:18:42;7.33;;;2.60;;
36593;SDS011;22603;47.900;8.146;2023-04-03T16:21:32;5.90;;;2.20;;
36593;SDS011;22603;47.900;8.146;2023-04-03T16:24:21;4.77;;;2.20;;
36593;SDS011;22603;47.900;8.146;2023-04-03T16:27:09;4.43;;;2.03;;
36593;SDS011;22603;47.900;8.146;2023-04-03T16:29:59;5.60;;;2.27;;
36593;SDS011;22603;47.900;8.146;2023-04-03T16:32:47;5.37;;;2.10;;
36593;SDS011;22603;47.900;8.146;2023-04-03T16:35:35;5.33;;;2.70;;
36593;SDS011;22603;47.900;8.146;2023-04-03T16:38:29;7.13;;;2.50;;
36593;SDS011;22603;47.900;8.146;2023-04-03T16:41:17;8.40;;;2.30;;
36593;SDS011;22603;47.900;8.146;2023-04-03T16:44:04;5.00;;;2.17;;
36593;SDS011;22603;47.900;8.146;2023-04-03T16:46:54;4.13;;;1.70;;
36593;SDS011;22603;47.900;8.146;2023-04-03T16:49:41;6.67;;;2.10;;
36593;SDS011;22603;47.900;8.146;2023-04-03T16:52:30;10.03;;;2.30;;
36593;SDS011;22603;47.900;8.146;2023-04-03T16:55:18;4.77;;;2.33;;
36593;SDS011;22603;47.900;8.146;2023-04-03T16:58:10;4.63;;;2.00;;
36593;SDS011;22603;47.900;8.146;2023-04-03T17:00:57;5.60;;;2.40;;
36593;SDS011;22603;47.900;8.146;2023-04-03T17:03:45;6.73;;;2.37;;
36593;SDS011;22603;47.900;8.146;2023-04-03T17:06:34;3.80;;;2.07;;
36593;SDS011;22603;47.900;8.146;2023-04-03T17:09:21;7.87;;;2.40;;
36593;SDS011;22603;47.900;8.146;2023-04-03T17:12:09;5.60;;;2.17;;
36593;SDS011;22603;47.900;8.146;2023-04-03T17:14:58;4.20;;;1.87;;
36593;SDS011;22603;47.900;8.146;2023-04-03T17:17:45;4.83;;;2.00;;
36593;SDS011;22603;47.900;8.146;2023-04-03T17:20:33;4.27;;;1.90;;
36593;SDS011;22603;47.900;8.146;2023-04-03T17:23:23;7.00;;;2.57;;
36593;SDS011;22603;47.900;8.146;2023-04-03T17:26:12;7.43;;;2.93;;
36593;SDS011;22603;47.900;8.146;2023-04-03T17:29:00;6.03;;;2.00;;